You are not logged in, Click here to log in
機場資訊:LEMD Welcome to Taiwan Airways 台灣虛擬航空
ICAO: LEMD Country: 西班牙首都馬德里的主要國際機場
Latitude: 40.4936 Longitude: -3.56676
Total Arrivals: 5 Total Departures: 5
Latest Arrival: A3686 (LGAV-LEMD)ALAN. LIU Latest Departure: FS23 (LEMD-LPPT)ALAN. LIU
Scenery:
METAR : LEMD 141800Z 24009KT 200V280 9999 -DZ SCT045TCU BKN060 OVC075 12/09 Q1015 R88/29//95 NOSIG

阿道弗·蘇亞雷斯馬德里-巴拉哈斯機場MAD